Terminal Aerodrome Forecast
Issued by NWS Charleston, WV

Home | Current Version | Previous Version | Text Only | Print | Product List | Glossary On
Versions: 1 2 3 4 5 6 7 8 9 10 11 12 13 14 15 16 17 18 19
360
FTUS41 KRLX 241120
TAFEKN
TAF
KEKN 241120Z 2412/2512 17012G18KT P6SM -SHRA SCT050 OVC070
      TEMPO 2415/2419 4SM -SHRA OVC025
     FM242000 15012G20KT P6SM -SHRA OVC060
     FM250000 18009KT P6SM OVC120
     FM251000 00000KT P6SM OVC030=

USA.gov is the U.S. government's official web portal to all federal, state and local government web resources and services.